Time;durP1;ratioP1;P1;durP2;ratioP2;P2;SDS_P1;SDS_P2;PMS_P1;PMS_P2;Temp;Humidity;BMP_temperature;BMP_pressure;BME280_temperature;BME280_humidity;BME280_pressure;Samples;Min_cycle;Max_cycle;Signal;HPM_P1;HPM_P2
2021/06/25 00:01:40;;;;;;;24.10;20.43;;;16.80;1.00;;;;;;5092418;28;20200;-66
2021/06/25 00:04:07;;;;;;;26.93;20.97;;;16.80;1.00;;;;;;5092631;28;20207;-66
2021/06/25 00:06:35;;;;;;;28.47;20.20;;;16.70;1.00;;;;;;5092588;28;20211;-65
2021/06/25 00:09:02;;;;;;;25.17;20.27;;;16.70;1.00;;;;;;5092410;28;20228;-66
2021/06/25 00:11:29;;;;;;;29.10;21.53;;;16.70;1.00;;;;;;5091983;28;20208;-67
2021/06/25 00:13:55;;;;;;;32.67;22.27;;;16.50;1.00;;;;;;5092524;28;20219;-67
2021/06/25 00:16:22;;;;;;;27.60;21.57;;;16.50;1.00;;;;;;5092545;28;20204;-66
2021/06/25 00:18:49;;;;;;;30.07;21.43;;;16.50;1.00;;;;;;5092270;28;20228;-66
2021/06/25 00:21:16;;;;;;;35.13;23.83;;;16.50;1.00;;;;;;5092166;28;20215;-66
2021/06/25 00:23:44;;;;;;;26.57;21.13;;;16.50;8.00;;;;;;5091955;28;20725;-66
2021/06/25 00:26:10;;;;;;;31.17;24.17;;;16.50;15.30;;;;;;5092498;28;20215;-66
2021/06/25 00:28:37;;;;;;;29.93;23.30;;;16.50;18.50;;;;;;5092114;28;20626;-66
2021/06/25 00:31:04;;;;;;;33.50;24.80;;;16.50;39.50;;;;;;5091650;28;20582;-66
2021/06/25 00:33:30;;;;;;;31.30;23.13;;;16.50;46.80;;;;;;5092122;28;20208;-66
2021/06/25 00:35:57;;;;;;;29.67;22.00;;;16.50;49.50;;;;;;5092179;28;20212;-66
2021/06/25 00:38:24;;;;;;;26.33;22.30;;;16.50;46.90;;;;;;5092059;28;20232;-66
2021/06/25 00:40:52;;;;;;;30.67;23.07;;;16.60;46.60;;;;;;5091599;28;20273;-66
2021/06/25 00:43:19;;;;;;;28.57;22.90;;;16.70;51.90;;;;;;5092131;28;20220;-66
2021/06/25 00:45:45;;;;;;;31.23;23.63;;;16.70;45.10;;;;;;5092020;28;20597;-66
2021/06/25 00:48:12;;;;;;;30.07;23.50;;;16.70;30.60;;;;;;5092013;28;20224;-66
2021/06/25 00:50:39;;;;;;;31.93;24.10;;;16.70;27.50;;;;;;5091599;28;20578;-66
2021/06/25 00:53:06;;;;;;;27.67;22.87;;;16.70;33.10;;;;;;5092029;28;20212;-66
2021/06/25 00:55:41;;;;;;;33.93;23.40;;;16.70;20.00;;;;;;5091871;28;20204;-66
2021/06/25 00:58:10;;;;;;;28.93;21.80;;;16.70;20.20;;;;;;5092069;28;20636;-66
2021/06/25 01:00:37;;;;;;;29.93;23.37;;;16.70;15.80;;;;;;5091667;28;20211;-66
2021/06/25 01:03:04;;;;;;;27.57;22.97;;;16.70;9.10;;;;;;5091835;28;20583;-66
2021/06/25 01:05:31;;;;;;;30.77;22.57;;;16.70;8.70;;;;;;5091910;28;20210;-66
2021/06/25 01:07:59;;;;;;;29.23;23.70;;;16.60;8.10;;;;;;5093287;28;20224;-66
2021/06/25 01:10:25;;;;;;;29.30;23.03;;;16.60;8.90;;;;;;5095821;28;20215;-66
2021/06/25 01:12:52;;;;;;;31.03;23.90;;;16.50;38.60;;;;;;5095763;28;20204;-66
2021/06/25 01:15:21;;;;;;;30.03;22.87;;;16.50;1.00;;;;;;5095874;28;20207;-66
2021/06/25 01:17:47;;;;;;;32.20;23.27;;;16.50;1.00;;;;;;5095650;28;20226;-66
2021/06/25 01:20:17;;;;;;;33.00;23.23;;;16.40;2.10;;;;;;5095262;28;20215;-66
2021/06/25 01:22:45;;;;;;;29.10;23.97;;;16.30;8.00;;;;;;5095741;28;20273;-66
2021/06/25 01:25:15;;;;;;;35.23;24.43;;;16.20;7.90;;;;;;5095817;28;20211;-66
2021/06/25 01:27:43;;;;;;;33.10;25.07;;;16.10;1.00;;;;;;5095763;28;20604;-66
2021/06/25 01:30:12;;;;;;;34.80;25.03;;;16.00;1.00;;;;;;5095096;28;20216;-66
2021/06/25 01:32:39;;;;;;;31.37;24.30;;;15.90;1.00;;;;;;5095363;28;20212;-66
2021/06/25 01:35:08;;;;;;;31.20;25.17;;;15.90;1.00;;;;;;5095299;28;20215;-66
2021/06/25 01:37:35;;;;;;;35.00;25.07;;;15.80;1.00;;;;;;5095588;28;20212;-66
2021/06/25 01:40:05;;;;;;;33.50;24.57;;;15.70;1.00;;;;;;5094811;28;20699;-66
2021/06/25 01:42:34;;;;;;;34.73;24.57;;;15.60;1.00;;;;;;5095335;28;20228;-66
2021/06/25 01:45:03;;;;;;;35.30;25.23;;;15.40;1.00;;;;;;5094993;28;20716;-66
2021/06/25 01:47:30;;;;;;;39.50;26.17;;;15.30;1.00;;;;;;5095633;28;20201;-66
2021/06/25 01:49:56;;;;;;;38.93;25.50;;;15.30;1.00;;;;;;5095003;28;20204;-67
2021/06/25 01:52:23;;;;;;;33.37;25.43;;;15.20;1.00;;;;;;5095121;28;20208;-66
2021/06/25 01:54:50;;;;;;;36.87;25.20;;;15.20;1.00;;;;;;5094952;28;20676;-66
2021/06/25 01:57:18;;;;;;;35.40;24.63;;;15.10;1.00;;;;;;5095232;28;20204;-66
2021/06/25 01:59:44;;;;;;;35.70;25.27;;;15.10;1.00;;;;;;5095363;28;20228;-66
2021/06/25 02:02:11;;;;;;;33.87;24.93;;;15.10;1.00;;;;;;5094786;28;20211;-66
2021/06/25 02:04:38;;;;;;;30.93;24.40;;;15.00;7.20;;;;;;5094950;28;20211;-66
2021/06/25 02:07:05;;;;;;;33.30;24.10;;;14.90;7.10;;;;;;5094936;28;20204;-66
2021/06/25 02:09:31;;;;;;;35.17;24.27;;;15.00;7.40;;;;;;5094918;28;20357;-66
2021/06/25 02:11:59;;;;;;;33.87;24.00;;;14.90;5.00;;;;;;5094601;28;20204;-66
2021/06/25 02:14:27;;;;;;;33.17;23.77;;;14.90;1.00;;;;;;5095033;28;20200;-66
2021/06/25 02:16:54;;;;;;;31.23;23.83;;;15.00;7.00;;;;;;5094570;28;20293;-66
2021/06/25 02:19:21;;;;;;;30.97;23.17;;;14.90;7.00;;;;;;5093880;28;20709;-66
2021/06/25 02:21:48;;;;;;;33.17;24.33;;;14.90;28.60;;;;;;5094551;28;20204;-66
2021/06/25 02:24:15;;;;;;;32.37;23.87;;;14.80;45.50;;;;;;5094905;28;20302;-66
2021/06/25 02:26:42;;;;;;;33.30;24.60;;;14.70;66.20;;;;;;5094239;28;20614;-65
2021/06/25 02:29:09;;;;;;;39.77;24.93;;;14.70;99.90;;;;;;5094729;28;20225;-65
2021/06/25 02:31:37;;;;;;;35.67;23.73;;;14.70;99.90;;;;;;5094346;28;20216;-66
2021/06/25 02:34:04;;;;;;;31.13;23.50;;;14.70;99.90;;;;;;5094456;28;20580;-66
2021/06/25 02:36:31;;;;;;;34.33;23.67;;;14.60;99.90;;;;;;5094612;28;20294;-65
2021/06/25 02:38:57;;;;;;;33.30;24.33;;;14.60;99.90;;;;;;5094244;28;20235;-66
2021/06/25 02:41:24;;;;;;;29.40;22.50;;;14.60;99.90;;;;;;5094062;28;20216;-66
2021/06/25 02:43:51;;;;;;;31.87;23.20;;;14.50;99.90;;;;;;5094738;28;20230;-66
2021/06/25 02:46:18;;;;;;;33.37;23.47;;;14.50;99.90;;;;;;5094218;28;20211;-66
2021/06/25 02:48:46;;;;;;;34.13;24.90;;;14.50;99.90;;;;;;5094305;28;20231;-66
2021/06/25 02:51:13;;;;;;;31.53;22.90;;;14.40;99.90;;;;;;5093759;28;20200;-66
2021/06/25 02:53:39;;;;;;;31.07;23.27;;;14.40;99.90;;;;;;5093628;28;20328;-66
2021/06/25 02:56:06;;;;;;;33.60;23.70;;;14.40;99.90;;;;;;5094357;28;20226;-66
2021/06/25 02:58:33;;;;;;;31.23;23.43;;;14.30;99.90;;;;;;5094119;28;20240;-66
2021/06/25 03:01:00;;;;;;;34.23;24.23;;;14.30;99.90;;;;;;5093646;28;20207;-65
2021/06/25 03:03:26;;;;;;;34.47;23.37;;;14.20;99.90;;;;;;5093779;28;20235;-66
2021/06/25 03:05:55;;;;;;;35.03;23.23;;;14.10;99.90;;;;;;5093667;28;20200;-65
2021/06/25 03:08:21;;;;;;;31.40;23.70;;;14.20;99.90;;;;;;5093399;28;20742;-67
2021/06/25 03:10:49;;;;;;;33.27;23.13;;;14.10;99.90;;;;;;5093383;28;20204;-66
2021/06/25 03:13:17;;;;;;;31.27;22.33;;;14.10;99.90;;;;;;5093653;28;20204;-65
2021/06/25 03:15:44;;;;;;;34.03;22.97;;;14.00;99.90;;;;;;5093738;28;20207;-66
2021/06/25 03:18:11;;;;;;;34.37;23.87;;;13.90;99.90;;;;;;5093617;28;20234;-66
2021/06/25 03:20:38;;;;;;;33.37;23.30;;;13.90;99.90;;;;;;5093244;28;20208;-66
2021/06/25 03:23:06;;;;;;;34.00;24.07;;;13.90;1.00;;;;;;5093182;28;20220;-66
2021/06/25 03:25:34;;;;;;;34.63;23.90;;;13.90;1.00;;;;;;5093369;28;20586;-66
2021/06/25 03:28:00;;;;;;;43.20;26.93;;;13.80;1.00;;;;;;5093545;28;20238;-66
2021/06/25 03:30:27;;;;;;;35.10;24.63;;;13.80;1.00;;;;;;5092717;28;20215;-66
2021/06/25 03:32:54;;;;;;;33.73;24.20;;;13.80;1.00;;;;;;5092592;28;20208;-66
2021/06/25 03:35:21;;;;;;;32.83;23.07;;;13.70;1.00;;;;;;5093063;28;20621;-66
2021/06/25 03:37:48;;;;;;;34.67;24.10;;;13.70;32.90;;;;;;5093305;28;20238;-66
2021/06/25 03:40:17;;;;;;;41.60;25.07;;;13.70;99.20;;;;;;5092878;28;20231;-66
2021/06/25 03:42:45;;;;;;;38.37;25.60;;;13.60;99.90;;;;;;5093067;28;20207;-66
2021/06/25 03:45:15;;;;;;;40.03;26.13;;;13.60;99.90;;;;;;5092990;28;20213;-67
2021/06/25 03:47:43;;;;;;;42.67;26.40;;;13.60;99.90;;;;;;5092653;28;20723;-66
2021/06/25 03:50:12;;;;;;;43.50;27.97;;;13.60;99.90;;;;;;5092682;28;20218;-66
2021/06/25 03:52:39;;;;;;;39.97;28.27;;;13.60;99.90;;;;;;5092972;28;20577;-66
2021/06/25 03:55:09;;;;;;;42.43;28.77;;;13.70;1.00;;;;;;5093015;28;20569;-66
2021/06/25 03:57:37;;;;;;;39.07;28.00;;;13.70;1.00;;;;;;5092725;28;20265;-66
2021/06/25 04:00:07;;;;;;;38.87;27.70;;;13.70;1.00;;;;;;5092362;28;20206;-66
2021/06/25 04:02:33;;;;;;;44.13;30.10;;;13.70;1.00;;;;;;5092632;28;20211;-66
2021/06/25 04:05:00;;;;;;;40.63;26.23;;;13.70;9.60;;;;;;5092628;28;20226;-66
2021/06/25 04:07:27;;;;;;;39.47;27.33;;;13.80;8.10;;;;;;5092684;28;20216;-66
2021/06/25 04:09:54;;;;;;;39.40;26.27;;;13.80;1.00;;;;;;5083064;28;20212;-66
2021/06/25 04:12:21;;;;;;;38.53;28.17;;;13.90;1.00;;;;;;5072180;28;20207;-66
2021/06/25 04:14:49;;;;;;;39.17;26.90;;;13.90;1.00;;;;;;5072380;28;20598;-66
2021/06/25 04:17:15;;;;;;;40.30;27.33;;;14.00;1.00;;;;;;5088279;28;20201;-67
2021/06/25 04:19:42;;;;;;;40.83;28.20;;;14.10;99.90;;;;;;5086483;28;20228;-66
2021/06/25 04:22:09;;;;;;;34.93;25.43;;;14.10;99.90;;;;;;5071809;28;20573;-66
2021/06/25 04:24:35;;;;;;;38.67;24.93;;;14.10;88.30;;;;;;5071726;28;20254;-66
2021/06/25 04:27:02;;;;;;;33.00;24.23;;;14.20;1.00;;;;;;5071902;28;20209;-66
2021/06/25 04:29:29;;;;;;;35.50;24.40;;;14.20;1.00;;;;;;5071458;28;20235;-66
2021/06/25 04:31:56;;;;;;;33.23;23.90;;;14.30;99.90;;;;;;5071131;28;20685;-64
2021/06/25 04:34:23;;;;;;;33.27;23.93;;;14.40;99.90;;;;;;5071501;28;20204;-64
2021/06/25 04:36:50;;;;;;;35.20;25.47;;;14.40;99.90;;;;;;5071688;28;20213;-64
2021/06/25 04:39:16;;;;;;;36.03;24.17;;;14.40;99.90;;;;;;5071481;28;20232;-64
2021/06/25 04:41:43;;;;;;;30.93;24.17;;;14.50;99.90;;;;;;5082066;28;20687;-65
2021/06/25 04:44:11;;;;;;;35.47;22.77;;;14.50;99.90;;;;;;5091332;28;20582;-64
2021/06/25 04:46:38;;;;;;;33.47;23.27;;;14.50;96.30;;;;;;5091956;28;20203;-65
2021/06/25 04:49:06;;;;;;;29.87;23.00;;;14.60;6.90;;;;;;5091963;28;20231;-65
2021/06/25 04:51:32;;;;;;;27.53;21.53;;;14.60;1.00;;;;;;5091285;28;20216;-64
2021/06/25 04:53:59;;;;;;;30.83;21.60;;;14.70;1.00;;;;;;5091889;28;20732;-64
2021/06/25 04:56:26;;;;;;;32.97;23.33;;;14.80;1.00;;;;;;5091797;28;20208;-65
2021/06/25 04:58:52;;;;;;;31.57;21.50;;;14.80;1.00;;;;;;5091371;28;20224;-65
2021/06/25 05:01:19;;;;;;;30.27;21.57;;;14.80;1.00;;;;;;5090915;28;20668;-65
2021/06/25 05:03:46;;;;;;;31.63;22.40;;;14.80;1.00;;;;;;5091782;28;20220;-65
2021/06/25 05:06:14;;;;;;;33.23;22.53;;;14.80;1.00;;;;;;5091778;28;20211;-65
2021/06/25 05:08:40;;;;;;;33.00;21.47;;;14.80;1.00;;;;;;5091588;28;20589;-65
2021/06/25 05:11:07;;;;;;;30.50;20.53;;;14.90;1.00;;;;;;5091234;28;20305;-64
2021/06/25 05:13:34;;;;;;;28.90;21.60;;;14.90;1.00;;;;;;5091391;28;20676;-65
2021/06/25 05:16:01;;;;;;;27.90;20.30;;;15.00;1.00;;;;;;5091791;28;20203;-65
2021/06/25 05:18:27;;;;;;;28.40;22.13;;;15.10;1.00;;;;;;5091390;28;20232;-65
2021/06/25 05:20:54;;;;;;;29.93;22.03;;;15.10;1.00;;;;;;5091049;28;20681;-65
2021/06/25 05:23:22;;;;;;;32.50;22.33;;;15.20;1.00;;;;;;5091717;28;20215;-65
2021/06/25 05:25:49;;;;;;;33.77;22.33;;;15.30;1.00;;;;;;5091651;28;20576;-65
2021/06/25 05:28:16;;;;;;;30.90;22.27;;;15.40;1.00;;;;;;5091698;28;20231;-65
2021/06/25 05:30:42;;;;;;;28.33;22.13;;;15.40;1.00;;;;;;5076202;28;20205;-65
2021/06/25 05:33:10;;;;;;;32.57;22.60;;;15.50;1.00;;;;;;5070854;28;20593;-66
2021/06/25 05:35:37;;;;;;;37.20;22.73;;;15.50;1.00;;;;;;5071376;28;20205;-65
2021/06/25 05:38:06;;;;;;;33.33;22.63;;;15.50;1.00;;;;;;5071347;28;20231;-63
2021/06/25 05:40:35;;;;;;;32.60;21.43;;;15.40;1.00;;;;;;5073451;28;20736;-65
2021/06/25 05:43:02;;;;;;;34.13;22.40;;;15.50;1.00;;;;;;5087871;28;20208;-65
2021/06/25 05:45:30;;;;;;;37.57;22.10;;;15.70;1.00;;;;;;5088031;28;20240;-64
2021/06/25 05:47:57;;;;;;;36.17;21.30;;;15.70;1.00;;;;;;5088001;28;20228;-64
2021/06/25 05:50:24;;;;;;;32.87;21.67;;;15.60;1.00;;;;;;5073988;28;20208;-65
2021/06/25 05:52:51;;;;;;;37.67;20.97;;;15.60;1.00;;;;;;5067468;28;20209;-65
2021/06/25 05:55:18;;;;;;;29.13;21.07;;;15.60;1.00;;;;;;5068818;28;20201;-64
2021/06/25 05:57:47;;;;;;;27.60;19.93;;;15.70;99.90;;;;;;5071435;28;20237;-65
2021/06/25 06:00:15;;;;;;;31.87;21.00;;;15.60;99.90;;;;;;5070819;28;20266;-64
2021/06/25 06:02:42;;;;;;;31.73;20.80;;;15.70;99.90;;;;;;5070862;28;20216;-64
2021/06/25 06:05:10;;;;;;;30.27;20.47;;;15.70;99.90;;;;;;5070791;28;20712;-64
2021/06/25 06:07:37;;;;;;;28.67;20.77;;;15.80;99.90;;;;;;5070926;28;20216;-63
2021/06/25 06:10:05;;;;;;;31.53;21.60;;;15.80;99.90;;;;;;5070633;28;20740;-63
2021/06/25 06:12:32;;;;;;;32.43;21.70;;;15.80;99.90;;;;;;5070750;28;20231;-65
2021/06/25 06:15:00;;;;;;;33.80;22.70;;;15.90;99.90;;;;;;5070724;28;20246;-65
2021/06/25 06:17:27;;;;;;;41.57;23.37;;;15.90;99.90;;;;;;5070579;28;20216;-65
2021/06/25 06:19:56;;;;;;;32.67;21.10;;;16.10;99.90;;;;;;5071105;28;20212;-66
2021/06/25 06:33:32;;;;;;;14.90;10.83;;;16.40;99.90;;;;;;5073551;28;20345;-66
2021/06/25 06:36:00;;;;;;;13.73;10.53;;;16.60;99.90;;;;;;5073677;28;20669;-68
2021/06/25 06:38:29;;;;;;;17.60;10.50;;;16.60;99.90;;;;;;5073637;28;20235;-66
2021/06/25 06:40:55;;;;;;;17.20;11.03;;;16.60;99.90;;;;;;5072717;28;20223;-67
2021/06/25 06:43:22;;;;;;;17.43;11.47;;;16.70;99.90;;;;;;5073813;28;20205;-66
2021/06/25 06:45:50;;;;;;;18.57;11.60;;;16.80;99.90;;;;;;5076348;28;20228;-66
2021/06/25 06:48:17;;;;;;;15.73;11.77;;;16.80;99.90;;;;;;5073724;28;20224;-65
2021/06/25 06:50:43;;;;;;;19.90;13.83;;;16.90;99.90;;;;;;5073263;28;20208;-66
2021/06/25 06:53:10;;;;;;;18.83;13.97;;;16.90;99.90;;;;;;5073801;28;20205;-65
2021/06/25 06:55:42;;;;;;;16.57;13.37;;;17.10;99.90;;;;;;5076261;28;20208;-66
2021/06/25 06:58:10;;;;;;;18.80;14.07;;;17.20;99.90;;;;;;5074411;28;20271;-66
2021/06/25 07:00:37;;;;;;;20.40;13.17;;;17.20;99.90;;;;;;5073007;28;20244;-65
2021/06/25 07:03:06;;;;;;;17.03;13.20;;;17.30;99.90;;;;;;5072718;28;20214;-65
2021/06/25 07:05:32;;;;;;;18.03;13.60;;;17.40;99.90;;;;;;5072655;28;20228;-65
2021/06/25 07:07:59;;;;;;;20.80;14.97;;;17.40;99.90;;;;;;5072496;28;20232;-65
2021/06/25 07:10:26;;;;;;;19.83;13.70;;;17.60;99.90;;;;;;5072575;28;20201;-65
2021/06/25 07:12:52;;;;;;;18.53;13.20;;;17.60;99.90;;;;;;5072416;28;20844;-63
2021/06/25 07:15:19;;;;;;;19.87;12.67;;;17.70;99.90;;;;;;5072596;28;20212;-64
2021/06/25 07:17:46;;;;;;;19.53;13.30;;;17.90;99.90;;;;;;5072729;28;20577;-63
2021/06/25 07:20:14;;;;;;;19.93;13.10;;;18.00;99.90;;;;;;5072082;28;20212;-64
2021/06/25 07:22:41;;;;;;;20.80;13.33;;;18.00;99.90;;;;;;5072127;28;20211;-63
2021/06/25 07:25:08;;;;;;;20.23;13.60;;;18.10;99.90;;;;;;5072658;28;20236;-65
2021/06/25 07:27:36;;;;;;;18.87;12.23;;;18.20;99.90;;;;;;5072529;28;20211;-64
2021/06/25 07:30:04;;;;;;;19.97;12.87;;;18.40;99.90;;;;;;5072531;28;20223;-63
2021/06/25 07:32:31;;;;;;;22.27;14.00;;;18.60;99.90;;;;;;5071871;28;20209;-64
2021/06/25 07:34:57;;;;;;;19.43;12.57;;;18.40;99.90;;;;;;5082251;28;20192;-67
2021/06/25 07:37:25;;;;;;;17.13;12.30;;;18.50;99.90;;;;;;5091899;28;20204;-66
2021/06/25 07:39:52;;;;;;;16.50;10.47;;;18.60;99.90;;;;;;5092438;28;20219;-67
2021/06/25 07:42:21;;;;;;;17.97;11.90;;;18.90;99.90;;;;;;5091704;28;20218;-66
2021/06/25 07:44:49;;;;;;;18.43;12.60;;;19.10;99.90;;;;;;5092384;28;20255;-66
2021/06/25 07:47:16;;;;;;;18.83;13.80;;;19.50;99.90;;;;;;5092353;28;20215;-67
2021/06/25 07:49:43;;;;;;;21.80;13.90;;;19.50;99.90;;;;;;5092115;28;20228;-66
2021/06/25 07:52:10;;;;;;;19.10;12.73;;;19.40;99.90;;;;;;5090020;28;20216;-67
2021/06/25 07:54:38;;;;;;;20.90;13.97;;;19.60;99.90;;;;;;5092424;28;20240;-67
2021/06/25 07:57:06;;;;;;;19.40;13.53;;;19.60;99.90;;;;;;5092273;28;20200;-64
2021/06/25 07:59:32;;;;;;;18.03;13.60;;;19.50;99.90;;;;;;5092195;28;20228;-64
2021/06/25 08:02:00;;;;;;;17.37;13.13;;;19.70;99.90;;;;;;5091141;28;20208;-65
2021/06/25 08:04:29;;;;;;;17.30;12.83;;;19.70;99.90;;;;;;5086828;28;20391;-66
2021/06/25 08:06:56;;;;;;;18.67;13.53;;;19.80;99.90;;;;;;5072162;28;20217;-65
2021/06/25 08:09:23;;;;;;;18.73;13.43;;;19.70;99.90;;;;;;5071312;28;20232;-65
2021/06/25 08:11:51;;;;;;;17.53;13.60;;;19.70;99.90;;;;;;5071214;28;20216;-65
2021/06/25 08:14:18;;;;;;;20.90;13.27;;;19.50;99.90;;;;;;5071720;28;20202;-65
2021/06/25 08:16:45;;;;;;;15.87;11.80;;;19.60;99.90;;;;;;5084704;28;20253;-66
2021/06/25 08:19:11;;;;;;;16.17;12.40;;;19.70;99.90;;;;;;5091556;28;20236;-66
2021/06/25 08:21:38;;;;;;;17.10;12.67;;;19.80;99.90;;;;;;5090991;28;20208;-66
2021/06/25 08:24:06;;;;;;;16.30;11.67;;;19.90;99.90;;;;;;5091877;28;20208;-66
2021/06/25 08:26:33;;;;;;;19.50;12.53;;;19.90;99.90;;;;;;5091969;28;20204;-68
2021/06/25 08:29:01;;;;;;;17.60;14.57;;;19.70;99.90;;;;;;5091550;28;20224;-68
2021/06/25 08:31:27;;;;;;;19.33;13.63;;;19.50;99.90;;;;;;5090952;28;20208;-67
2021/06/25 08:33:54;;;;;;;19.87;13.37;;;19.60;99.90;;;;;;5091759;28;20286;-69
2021/06/25 08:36:40;;;;;;;17.37;12.13;;;19.80;99.90;;;;;;5092061;28;20205;-65
2021/06/25 08:39:08;;;;;;;17.53;12.33;;;20.20;99.90;;;;;;5091133;28;20232;-66
2021/06/25 08:41:36;;;;;;;20.33;13.50;;;20.40;99.90;;;;;;5090851;28;20204;-66
2021/06/25 08:44:05;;;;;;;18.47;12.70;;;20.30;99.90;;;;;;5091456;28;20235;-67
2021/06/25 08:46:33;;;;;;;17.33;13.30;;;20.20;99.90;;;;;;5084153;28;20244;-68
2021/06/25 08:49:03;;;;;;;18.70;14.53;;;20.40;99.90;;;;;;5071356;28;20225;-68
2021/06/25 08:51:30;;;;;;;23.47;14.33;;;20.70;99.90;;;;;;5070558;28;20625;-68
2021/06/25 08:53:57;;;;;;;18.50;14.50;;;20.50;99.90;;;;;;5071458;28;20209;-69
2021/06/25 08:56:23;;;;;;;24.57;15.87;;;20.60;99.90;;;;;;5071112;28;20201;-68
2021/06/25 08:58:50;;;;;;;46.80;32.00;;;20.60;99.90;;;;;;5071378;28;20232;-66
2021/06/25 09:01:19;;;;;;;22.17;13.77;;;20.50;99.90;;;;;;5070499;28;20219;-67
2021/06/25 09:03:52;;;;;;;21.70;13.63;;;20.60;99.90;;;;;;5070693;28;20205;-65
2021/06/25 09:06:18;;;;;;;17.93;13.70;;;20.40;99.90;;;;;;5071104;28;20693;-66
2021/06/25 09:08:45;;;;;;;17.43;13.50;;;20.50;99.90;;;;;;5071023;28;20236;-65
2021/06/25 09:11:24;;;;;;;18.53;12.70;;;20.50;99.90;;;;;;5070628;28;20218;-65
2021/06/25 09:13:57;;;;;;;15.83;12.40;;;20.40;99.90;;;;;;5071454;28;20227;-66
2021/06/25 09:16:27;;;;;;;17.07;12.90;;;20.40;99.90;;;;;;5071379;28;20200;-65
2021/06/25 09:18:59;;;;;;;23.63;15.50;;;20.50;99.90;;;;;;5070972;28;20232;-64
2021/06/25 09:21:26;;;;;;;19.70;14.40;;;20.80;99.90;;;;;;5070234;28;20231;-66
2021/06/25 09:23:53;;;;;;;16.97;13.20;;;21.10;99.90;;;;;;5070955;28;20201;-65
2021/06/25 09:26:22;;;;;;;19.13;14.40;;;21.20;99.90;;;;;;5071170;28;20240;-67
2021/06/25 09:28:51;;;;;;;18.93;14.37;;;21.30;99.90;;;;;;5072077;28;20224;-64
2021/06/25 09:31:19;;;;;;;19.77;13.10;;;21.00;99.90;;;;;;5074084;28;20209;-65
2021/06/25 09:33:49;;;;;;;18.10;12.97;;;21.00;99.90;;;;;;5074400;28;20234;-67
2021/06/25 09:36:23;;;;;;;17.37;13.07;;;21.20;99.90;;;;;;5074912;28;20201;-63
2021/06/25 09:38:58;;;;;;;16.90;12.90;;;21.40;99.90;;;;;;5074756;28;20333;-66
2021/06/25 09:41:26;;;;;;;18.40;13.03;;;21.40;99.90;;;;;;5073825;28;20243;-66
2021/06/25 09:43:54;;;;;;;15.53;12.33;;;21.40;99.90;;;;;;5074415;28;20205;-66
2021/06/25 09:46:25;;;;;;;14.70;11.57;;;21.40;99.90;;;;;;5074170;28;20216;-66
2021/06/25 09:48:56;;;;;;;15.60;12.20;;;21.50;99.90;;;;;;5074634;28;20225;-66
2021/06/25 09:51:23;;;;;;;14.50;11.90;;;21.70;99.90;;;;;;5073889;28;20250;-66
2021/06/25 09:54:15;;;;;;;17.00;13.13;;;21.70;99.90;;;;;;5074395;28;20220;-63
2021/06/25 09:56:49;;;;;;;16.83;12.60;;;21.80;99.90;;;;;;5074252;28;20575;-62
2021/06/25 09:59:27;;;;;;;15.47;11.50;;;21.60;99.90;;;;;;5074381;28;20224;-64
2021/06/25 10:01:54;;;;;;;17.97;12.40;;;21.70;99.90;;;;;;5073522;28;20197;-63
2021/06/25 10:04:36;;;;;;;17.77;13.00;;;21.80;99.90;;;;;;5074252;28;20295;-63
2021/06/25 10:07:14;;;;;;;15.93;12.83;;;21.90;99.90;;;;;;5073832;28;20205;-63
2021/06/25 10:09:41;;;;;;;17.00;12.27;;;21.60;99.90;;;;;;5074029;28;20228;-64
2021/06/25 10:12:09;;;;;;;16.83;11.60;;;21.80;99.90;;;;;;5073648;28;20204;-65
2021/06/25 10:14:36;;;;;;;17.13;12.57;;;21.90;99.90;;;;;;5074249;28;20204;-65
2021/06/25 10:17:05;;;;;;;18.33;12.40;;;22.10;99.90;;;;;;5074164;28;20213;-66
2021/06/25 10:19:32;;;;;;;14.43;12.37;;;22.40;99.90;;;;;;5073595;28;20257;-62
2021/06/25 10:22:02;;;;;;;17.47;12.97;;;22.40;99.90;;;;;;5073505;28;20235;-62
2021/06/25 10:24:32;;;;;;;20.53;15.70;;;22.50;99.90;;;;;;5074443;28;20212;-65
2021/06/25 10:26:59;;;;;;;17.33;13.07;;;21.90;99.90;;;;;;5074331;28;20224;-66
2021/06/25 10:29:26;;;;;;;18.90;14.83;;;21.60;99.90;;;;;;5073547;28;20239;-66
2021/06/25 10:31:55;;;;;;;19.20;13.97;;;21.40;99.90;;;;;;5072956;28;20586;-66
2021/06/25 10:34:22;;;;;;;18.03;14.03;;;21.20;99.90;;;;;;5073649;28;20212;-66
2021/06/25 10:36:51;;;;;;;18.83;14.30;;;21.00;99.90;;;;;;5073677;28;20208;-66
2021/06/25 10:39:19;;;;;;;19.07;14.60;;;20.90;99.90;;;;;;5073507;28;20600;-66
2021/06/25 10:41:50;;;;;;;19.97;14.60;;;20.60;99.90;;;;;;5072785;28;20216;-66
2021/06/25 10:44:35;;;;;;;25.10;15.97;;;20.80;99.90;;;;;;5073743;28;20209;-65
2021/06/25 10:47:29;;;;;;;18.67;14.13;;;20.70;99.90;;;;;;5073717;28;20255;-67
2021/06/25 10:50:30;;;;;;;25.37;15.20;;;20.90;99.90;;;;;;5026844;28;20584;-65
2021/06/25 10:53:10;;;;;;;22.83;14.80;;;20.90;99.90;;;;;;5073536;28;20208;-65
2021/06/25 10:55:45;;;;;;;20.40;15.30;;;20.80;99.90;;;;;;5073959;28;20236;-65
2021/06/25 10:58:19;;;;;;;22.53;13.87;;;20.70;99.90;;;;;;5073468;28;20228;-65
2021/06/25 11:00:53;;;;;;;18.63;13.03;;;20.70;99.90;;;;;;5072881;28;20205;-65
2021/06/25 11:03:38;;;;;;;18.67;13.73;;;20.90;99.90;;;;;;5072561;28;20277;-65
2021/06/25 11:06:09;;;;;;;18.20;12.60;;;21.00;99.90;;;;;;5073102;28;20247;-64
2021/06/25 11:08:36;;;;;;;18.43;12.63;;;21.20;99.90;;;;;;5072913;28;20283;-64
2021/06/25 11:11:04;;;;;;;19.23;13.20;;;21.50;99.90;;;;;;5072418;28;20201;-64
2021/06/25 11:13:35;;;;;;;16.23;12.70;;;21.70;99.90;;;;;;5072586;28;20205;-64
2021/06/25 11:16:20;;;;;;;21.20;13.00;;;21.80;99.90;;;;;;5072419;28;20949;-66
2021/06/25 11:18:47;;;;;;;16.23;12.37;;;21.90;99.90;;;;;;5072761;28;20598;-65
2021/06/25 11:21:14;;;;;;;16.67;12.00;;;22.10;99.90;;;;;;5071619;28;20212;-66
2021/06/25 11:23:43;;;;;;;14.53;12.03;;;22.00;99.90;;;;;;5072441;28;20212;-69
2021/06/25 11:26:25;;;;;;;18.20;12.07;;;21.90;99.90;;;;;;5072194;28;20221;-68
2021/06/25 11:28:52;;;;;;;13.90;10.70;;;21.90;99.90;;;;;;5072553;28;20231;-68
2021/06/25 11:31:24;;;;;;;17.30;12.50;;;21.80;99.90;;;;;;5071531;28;20213;-68
2021/06/25 11:33:55;;;;;;;14.23;11.90;;;21.70;99.90;;;;;;5072386;28;20235;-67
2021/06/25 11:36:39;;;;;;;15.47;12.20;;;21.70;99.90;;;;;;5072273;28;20233;-66
2021/06/25 11:39:21;;;;;;;14.73;11.23;;;21.70;99.90;;;;;;5071901;28;20742;-66
2021/06/25 11:41:53;;;;;;;14.43;11.47;;;22.00;99.90;;;;;;5071527;28;20209;-67
2021/06/25 11:44:23;;;;;;;16.47;12.33;;;22.20;99.90;;;;;;5071567;28;20209;-67
2021/06/25 11:46:53;;;;;;;15.03;12.17;;;22.20;99.90;;;;;;5071819;28;20224;-68
2021/06/25 11:49:20;;;;;;;12.17;10.10;;;21.90;99.90;;;;;;5079559;28;20220;-67
2021/06/25 11:51:48;;;;;;;15.00;11.17;;;22.00;99.90;;;;;;5090860;28;20756;-66
2021/06/25 11:54:21;;;;;;;16.57;12.53;;;22.00;99.90;;;;;;5091766;28;20211;-63
2021/06/25 11:56:49;;;;;;;20.87;14.00;;;22.00;99.90;;;;;;5092188;28;20630;-65
2021/06/25 11:59:19;;;;;;;17.37;11.67;;;22.20;99.90;;;;;;5091864;28;20235;-67
2021/06/25 12:01:55;;;;;;;14.17;11.37;;;22.30;99.90;;;;;;5090921;28;20216;-67
2021/06/25 12:04:35;;;;;;;17.93;12.43;;;22.60;99.90;;;;;;5092275;28;20608;-67
2021/06/25 12:07:02;;;;;;;14.07;11.33;;;22.80;99.90;;;;;;5092043;28;20232;-67
2021/06/25 12:09:43;;;;;;;14.93;11.37;;;23.10;99.90;;;;;;5091532;28;20225;-67
2021/06/25 12:12:18;;;;;;;18.53;12.57;;;23.30;99.90;;;;;;5090705;28;20204;-67
2021/06/25 12:14:48;;;;;;;16.60;12.47;;;23.10;99.90;;;;;;5071682;28;20684;-68
2021/06/25 12:17:15;;;;;;;16.90;11.67;;;23.20;99.90;;;;;;5071560;28;20209;-69
2021/06/25 12:19:56;;;;;;;14.30;11.83;;;23.20;99.90;;;;;;5071235;28;20228;-67
2021/06/25 12:22:22;;;;;;;16.70;12.30;;;23.50;99.90;;;;;;5071003;28;20200;-66
2021/06/25 12:24:51;;;;;;;13.57;10.50;;;23.40;99.90;;;;;;5071123;28;20574;-66
2021/06/25 12:27:18;;;;;;;14.27;11.77;;;23.40;99.90;;;;;;5072704;28;20221;-68
2021/06/25 12:29:47;;;;;;;15.80;11.77;;;23.20;99.90;;;;;;5091457;28;20228;-68
2021/06/25 12:32:17;;;;;;;13.77;11.90;;;23.30;99.90;;;;;;5090923;28;20208;-68
2021/06/25 12:34:44;;;;;;;14.57;11.50;;;23.20;99.90;;;;;;5091675;28;20214;-68
2021/06/25 12:37:11;;;;;;;14.30;10.97;;;23.30;99.90;;;;;;5090968;28;20668;-67
2021/06/25 12:39:42;;;;;;;18.53;12.20;;;23.30;99.90;;;;;;5091673;28;20327;-68
2021/06/25 12:42:09;;;;;;;15.87;12.13;;;23.10;99.90;;;;;;5090933;28;20208;-67
2021/06/25 12:44:36;;;;;;;14.10;12.40;;;23.10;99.90;;;;;;5091300;28;20215;-66
2021/06/25 12:47:06;;;;;;;13.93;11.43;;;23.20;99.90;;;;;;5091197;28;20235;-66
2021/06/25 12:49:34;;;;;;;13.67;11.63;;;23.10;99.90;;;;;;5090890;28;20227;-67